sensor_id;sensor_type;location;lat;lon;timestamp;temperature;humidity
9776;DHT22;4927;52.472;13.108;2023-05-10T00:00:16;11.80;97.10
9776;DHT22;4927;52.472;13.108;2023-05-10T00:01:18;11.80;97.10
9776;DHT22;4927;52.472;13.108;2023-05-10T00:02:19;11.80;97.20
9776;DHT22;4927;52.472;13.108;2023-05-10T00:03:28;11.80;97.50
9776;DHT22;4927;52.472;13.108;2023-05-10T00:04:30;11.80;97.50
9776;DHT22;4927;52.472;13.108;2023-05-10T00:05:32;11.80;97.50
9776;DHT22;4927;52.472;13.108;2023-05-10T00:06:33;11.70;97.40
9776;DHT22;4927;52.472;13.108;2023-05-10T00:07:35;11.70;97.60
9776;DHT22;4927;52.472;13.108;2023-05-10T00:08:37;11.70;97.60
9776;DHT22;4927;52.472;13.108;2023-05-10T00:09:39;11.70;97.70
9776;DHT22;4927;52.472;13.108;2023-05-10T00:10:40;11.70;97.70
9776;DHT22;4927;52.472;13.108;2023-05-10T00:11:42;11.70;97.60
9776;DHT22;4927;52.472;13.108;2023-05-10T00:12:44;11.70;97.70
9776;DHT22;4927;52.472;13.108;2023-05-10T00:13:46;11.70;97.80
9776;DHT22;4927;52.472;13.108;2023-05-10T00:14:47;11.70;97.90
9776;DHT22;4927;52.472;13.108;2023-05-10T00:15:50;11.70;98.00
9776;DHT22;4927;52.472;13.108;2023-05-10T00:16:52;11.70;98.00
9776;DHT22;4927;52.472;13.108;2023-05-10T00:17:54;11.70;97.90
9776;DHT22;4927;52.472;13.108;2023-05-10T00:18:56;11.70;97.90
9776;DHT22;4927;52.472;13.108;2023-05-10T00:19:58;11.60;98.20
9776;DHT22;4927;52.472;13.108;2023-05-10T00:20:59;11.60;98.20
9776;DHT22;4927;52.472;13.108;2023-05-10T00:22:01;11.60;97.90
9776;DHT22;4927;52.472;13.108;2023-05-10T00:23:03;11.60;98.20
9776;DHT22;4927;52.472;13.108;2023-05-10T00:24:05;11.70;98.00
9776;DHT22;4927;52.472;13.108;2023-05-10T00:25:08;11.60;97.90
9776;DHT22;4927;52.472;13.108;2023-05-10T00:26:11;11.60;98.30
9776;DHT22;4927;52.472;13.108;2023-05-10T00:27:13;11.60;98.20
9776;DHT22;4927;52.472;13.108;2023-05-10T00:28:14;11.60;98.30
9776;DHT22;4927;52.472;13.108;2023-05-10T00:29:16;11.60;98.30
9776;DHT22;4927;52.472;13.108;2023-05-10T00:30:18;11.60;98.60
9776;DHT22;4927;52.472;13.108;2023-05-10T00:31:20;11.60;98.60
9776;DHT22;4927;52.472;13.108;2023-05-10T00:32:21;11.60;98.50
9776;DHT22;4927;52.472;13.108;2023-05-10T00:33:23;11.60;98.30
9776;DHT22;4927;52.472;13.108;2023-05-10T00:34:25;11.60;98.30
9776;DHT22;4927;52.472;13.108;2023-05-10T00:35:27;11.60;98.50
9776;DHT22;4927;52.472;13.108;2023-05-10T00:36:28;11.60;98.50
9776;DHT22;4927;52.472;13.108;2023-05-10T00:37:30;11.60;98.60
9776;DHT22;4927;52.472;13.108;2023-05-10T00:38:33;11.60;98.60
9776;DHT22;4927;52.472;13.108;2023-05-10T00:39:34;11.50;98.50
9776;DHT22;4927;52.472;13.108;2023-05-10T00:40:36;11.50;98.50
9776;DHT22;4927;52.472;13.108;2023-05-10T00:41:37;11.50;98.50
9776;DHT22;4927;52.472;13.108;2023-05-10T00:42:39;11.50;98.60
9776;DHT22;4927;52.472;13.108;2023-05-10T00:43:41;11.50;98.70
9776;DHT22;4927;52.472;13.108;2023-05-10T00:44:43;11.50;98.60
9776;DHT22;4927;52.472;13.108;2023-05-10T00:45:44;11.50;98.70
9776;DHT22;4927;52.472;13.108;2023-05-10T00:46:48;11.50;98.80
9776;DHT22;4927;52.472;13.108;2023-05-10T00:47:50;11.50;98.70
9776;DHT22;4927;52.472;13.108;2023-05-10T00:48:51;11.50;99.00
9776;DHT22;4927;52.472;13.108;2023-05-10T00:49:53;11.50;99.10
9776;DHT22;4927;52.472;13.108;2023-05-10T00:50:55;11.40;99.10
9776;DHT22;4927;52.472;13.108;2023-05-10T00:51:57;11.40;99.00
9776;DHT22;4927;52.472;13.108;2023-05-10T00:52:59;11.40;99.00
9776;DHT22;4927;52.472;13.108;2023-05-10T00:54:01;11.40;99.20
9776;DHT22;4927;52.472;13.108;2023-05-10T00:55:05;11.40;99.40
9776;DHT22;4927;52.472;13.108;2023-05-10T00:56:08;11.40;99.30
9776;DHT22;4927;52.472;13.108;2023-05-10T00:57:10;11.40;99.20
9776;DHT22;4927;52.472;13.108;2023-05-10T00:58:11;11.40;99.20
9776;DHT22;4927;52.472;13.108;2023-05-10T00:59:13;11.40;99.10
9776;DHT22;4927;52.472;13.108;2023-05-10T01:00:16;11.40;99.40
9776;DHT22;4927;52.472;13.108;2023-05-10T01:01:18;11.40;99.40
9776;DHT22;4927;52.472;13.108;2023-05-10T01:02:20;11.40;99.20
9776;DHT22;4927;52.472;13.108;2023-05-10T01:03:21;11.40;99.30
9776;DHT22;4927;52.472;13.108;2023-05-10T01:04:23;11.40;99.60
9776;DHT22;4927;52.472;13.108;2023-05-10T01:05:26;11.40;99.50
9776;DHT22;4927;52.472;13.108;2023-05-10T01:06:27;11.30;99.40
9776;DHT22;4927;52.472;13.108;2023-05-10T01:07:30;11.40;99.40
9776;DHT22;4927;52.472;13.108;2023-05-10T01:08:32;11.30;99.30
9776;DHT22;4927;52.472;13.108;2023-05-10T01:09:34;11.30;99.40
9776;DHT22;4927;52.472;13.108;2023-05-10T01:10:35;11.30;99.50
9776;DHT22;4927;52.472;13.108;2023-05-10T01:11:37;11.30;99.50
9776;DHT22;4927;52.472;13.108;2023-05-10T01:12:40;11.30;99.80
9776;DHT22;4927;52.472;13.108;2023-05-10T01:13:41;11.30;99.80
9776;DHT22;4927;52.472;13.108;2023-05-10T01:14:43;11.30;99.90
9776;DHT22;4927;52.472;13.108;2023-05-10T01:15:45;11.30;99.80
9776;DHT22;4927;52.472;13.108;2023-05-10T01:16:47;11.30;99.90
9776;DHT22;4927;52.472;13.108;2023-05-10T01:17:49;11.30;99.90
9776;DHT22;4927;52.472;13.108;2023-05-10T01:18:51;11.20;99.90
9776;DHT22;4927;52.472;13.108;2023-05-10T01:19:53;11.20;99.90
9776;DHT22;4927;52.472;13.108;2023-05-10T01:21:01;11.20;99.90
9776;DHT22;4927;52.472;13.108;2023-05-10T01:22:38;11.20;99.90
9776;DHT22;4927;52.472;13.108;2023-05-10T01:24:37;11.20;99.90
9776;DHT22;4927;52.472;13.108;2023-05-10T01:27:02;11.20;99.90
9776;DHT22;4927;52.472;13.108;2023-05-10T01:27:25;11.10;99.90
9776;DHT22;4927;52.472;13.108;2023-05-10T01:28:53;11.10;99.90
9776;DHT22;4927;52.472;13.108;2023-05-10T01:30:26;11.10;99.90
9776;DHT22;4927;52.472;13.108;2023-05-10T01:31:59;11.10;99.90
9776;DHT22;4927;52.472;13.108;2023-05-10T01:33:05;11.10;99.90
9776;DHT22;4927;52.472;13.108;2023-05-10T01:34:08;11.10;99.90
9776;DHT22;4927;52.472;13.108;2023-05-10T01:35:13;11.10;99.90
9776;DHT22;4927;52.472;13.108;2023-05-10T01:36:32;11.10;99.90
9776;DHT22;4927;52.472;13.108;2023-05-10T01:37:37;11.00;99.90
9776;DHT22;4927;52.472;13.108;2023-05-10T01:38:57;11.00;99.90
9776;DHT22;4927;52.472;13.108;2023-05-10T01:40:17;11.00;99.90
9776;DHT22;4927;52.472;13.108;2023-05-10T01:41:18;11.10;99.90
9776;DHT22;4927;52.472;13.108;2023-05-10T01:42:21;11.10;99.90
9776;DHT22;4927;52.472;13.108;2023-05-10T01:43:22;11.10;99.90
9776;DHT22;4927;52.472;13.108;2023-05-10T01:44:31;11.00;99.90
9776;DHT22;4927;52.472;13.108;2023-05-10T01:45:33;11.00;99.90
9776;DHT22;4927;52.472;13.108;2023-05-10T01:46:35;11.00;99.90
9776;DHT22;4927;52.472;13.108;2023-05-10T01:47:38;11.00;99.90
9776;DHT22;4927;52.472;13.108;2023-05-10T01:48:40;11.00;99.90
9776;DHT22;4927;52.472;13.108;2023-05-10T01:49:43;11.00;99.90
9776;DHT22;4927;52.472;13.108;2023-05-10T01:50:44;11.00;99.90
9776;DHT22;4927;52.472;13.108;2023-05-10T01:51:47;11.00;99.90
9776;DHT22;4927;52.472;13.108;2023-05-10T01:52:51;10.90;99.90
9776;DHT22;4927;52.472;13.108;2023-05-10T01:53:54;11.00;99.90
9776;DHT22;4927;52.472;13.108;2023-05-10T01:54:56;10.90;99.90
9776;DHT22;4927;52.472;13.108;2023-05-10T01:55:57;10.90;99.90
9776;DHT22;4927;52.472;13.108;2023-05-10T01:57:00;10.90;99.90
9776;DHT22;4927;52.472;13.108;2023-05-10T01:58:07;10.90;99.90
9776;DHT22;4927;52.472;13.108;2023-05-10T01:59:10;10.90;99.90
9776;DHT22;4927;52.472;13.108;2023-05-10T02:00:11;10.90;99.90
9776;DHT22;4927;52.472;13.108;2023-05-10T02:01:13;10.80;99.90
9776;DHT22;4927;52.472;13.108;2023-05-10T02:02:15;10.80;99.90
9776;DHT22;4927;52.472;13.108;2023-05-10T02:03:16;10.80;99.90
9776;DHT22;4927;52.472;13.108;2023-05-10T02:04:19;10.80;99.90
9776;DHT22;4927;52.472;13.108;2023-05-10T02:05:20;10.80;99.90
9776;DHT22;4927;52.472;13.108;2023-05-10T02:06:22;10.80;99.90
9776;DHT22;4927;52.472;13.108;2023-05-10T02:07:24;10.80;99.90
9776;DHT22;4927;52.472;13.108;2023-05-10T02:08:26;10.80;99.90
9776;DHT22;4927;52.472;13.108;2023-05-10T02:09:28;10.70;99.90
9776;DHT22;4927;52.472;13.108;2023-05-10T02:10:30;10.70;99.90
9776;DHT22;4927;52.472;13.108;2023-05-10T02:11:32;10.70;99.90
9776;DHT22;4927;52.472;13.108;2023-05-10T02:12:35;10.70;99.90
9776;DHT22;4927;52.472;13.108;2023-05-10T02:13:37;10.70;99.90
9776;DHT22;4927;52.472;13.108;2023-05-10T02:14:39;10.70;99.90
9776;DHT22;4927;52.472;13.108;2023-05-10T02:15:41;10.70;99.90
9776;DHT22;4927;52.472;13.108;2023-05-10T02:16:43;10.60;99.90
9776;DHT22;4927;52.472;13.108;2023-05-10T02:17:45;10.60;99.90
9776;DHT22;4927;52.472;13.108;2023-05-10T02:18:47;10.60;99.90
9776;DHT22;4927;52.472;13.108;2023-05-10T02:19:49;10.60;99.90
9776;DHT22;4927;52.472;13.108;2023-05-10T02:20:50;10.60;99.90
9776;DHT22;4927;52.472;13.108;2023-05-10T02:21:52;10.60;99.90
9776;DHT22;4927;52.472;13.108;2023-05-10T02:22:54;10.60;99.90
9776;DHT22;4927;52.472;13.108;2023-05-10T02:23:57;10.60;99.90
9776;DHT22;4927;52.472;13.108;2023-05-10T02:24:59;10.60;99.90
9776;DHT22;4927;52.472;13.108;2023-05-10T02:26:00;10.60;99.90
9776;DHT22;4927;52.472;13.108;2023-05-10T02:27:02;10.50;99.90
9776;DHT22;4927;52.472;13.108;2023-05-10T02:28:04;10.50;99.90
9776;DHT22;4927;52.472;13.108;2023-05-10T02:29:06;10.50;99.90
9776;DHT22;4927;52.472;13.108;2023-05-10T02:30:08;10.50;99.90
9776;DHT22;4927;52.472;13.108;2023-05-10T02:31:10;10.50;99.90
9776;DHT22;4927;52.472;13.108;2023-05-10T02:32:12;10.50;99.90
9776;DHT22;4927;52.472;13.108;2023-05-10T02:33:13;10.50;99.90
9776;DHT22;4927;52.472;13.108;2023-05-10T02:34:15;10.50;99.90
9776;DHT22;4927;52.472;13.108;2023-05-10T02:35:17;10.50;99.90
9776;DHT22;4927;52.472;13.108;2023-05-10T02:36:19;10.50;99.90
9776;DHT22;4927;52.472;13.108;2023-05-10T02:37:21;10.40;99.90
9776;DHT22;4927;52.472;13.108;2023-05-10T02:38:23;10.40;99.90
9776;DHT22;4927;52.472;13.108;2023-05-10T02:39:25;10.40;99.90
9776;DHT22;4927;52.472;13.108;2023-05-10T02:40:27;10.40;99.90
9776;DHT22;4927;52.472;13.108;2023-05-10T02:41:29;10.40;99.90
9776;DHT22;4927;52.472;13.108;2023-05-10T02:42:32;10.40;99.90
9776;DHT22;4927;52.472;13.108;2023-05-10T02:43:33;10.40;99.90
9776;DHT22;4927;52.472;13.108;2023-05-10T02:44:34;10.30;99.90
9776;DHT22;4927;52.472;13.108;2023-05-10T02:45:36;10.30;99.90
9776;DHT22;4927;52.472;13.108;2023-05-10T02:46:38;10.30;99.90
9776;DHT22;4927;52.472;13.108;2023-05-10T02:47:40;10.30;99.90
9776;DHT22;4927;52.472;13.108;2023-05-10T02:48:41;10.30;99.90
9776;DHT22;4927;52.472;13.108;2023-05-10T02:49:43;10.30;99.90
9776;DHT22;4927;52.472;13.108;2023-05-10T02:50:45;10.30;99.90
9776;DHT22;4927;52.472;13.108;2023-05-10T02:51:49;10.30;99.90
9776;DHT22;4927;52.472;13.108;2023-05-10T02:52:50;10.30;99.90
9776;DHT22;4927;52.472;13.108;2023-05-10T02:53:51;10.30;99.90
9776;DHT22;4927;52.472;13.108;2023-05-10T02:54:55;10.20;99.90
9776;DHT22;4927;52.472;13.108;2023-05-10T02:55:57;10.20;99.90
9776;DHT22;4927;52.472;13.108;2023-05-10T02:56:58;10.20;99.90
9776;DHT22;4927;52.472;13.108;2023-05-10T02:58:01;10.20;99.90
9776;DHT22;4927;52.472;13.108;2023-05-10T02:59:04;10.20;99.90
9776;DHT22;4927;52.472;13.108;2023-05-10T03:00:07;10.20;99.90
9776;DHT22;4927;52.472;13.108;2023-05-10T03:01:09;10.20;99.90
9776;DHT22;4927;52.472;13.108;2023-05-10T03:02:12;10.20;99.90
9776;DHT22;4927;52.472;13.108;2023-05-10T03:03:13;10.20;99.90
9776;DHT22;4927;52.472;13.108;2023-05-10T03:04:16;10.10;99.90
9776;DHT22;4927;52.472;13.108;2023-05-10T03:05:18;10.10;99.90
9776;DHT22;4927;52.472;13.108;2023-05-10T03:06:20;10.10;99.90
9776;DHT22;4927;52.472;13.108;2023-05-10T03:07:22;10.10;99.90
9776;DHT22;4927;52.472;13.108;2023-05-10T03:08:23;10.10;99.90
9776;DHT22;4927;52.472;13.108;2023-05-10T03:09:25;10.10;99.90
9776;DHT22;4927;52.472;13.108;2023-05-10T03:10:27;10.10;99.90
9776;DHT22;4927;52.472;13.108;2023-05-10T03:11:55;10.10;99.90
9776;DHT22;4927;52.472;13.108;2023-05-10T03:13:16;10.10;99.90
9776;DHT22;4927;52.472;13.108;2023-05-10T03:14:42;10.10;99.90
9776;DHT22;4927;52.472;13.108;2023-05-10T03:16:10;10.10;99.90
9776;DHT22;4927;52.472;13.108;2023-05-10T03:17:23;10.10;99.90
9776;DHT22;4927;52.472;13.108;2023-05-10T03:18:29;10.00;99.90
9776;DHT22;4927;52.472;13.108;2023-05-10T03:19:32;10.00;99.90
9776;DHT22;4927;52.472;13.108;2023-05-10T03:20:36;10.00;99.90
9776;DHT22;4927;52.472;13.108;2023-05-10T03:21:37;10.00;99.90
9776;DHT22;4927;52.472;13.108;2023-05-10T03:22:47;10.00;99.90
9776;DHT22;4927;52.472;13.108;2023-05-10T03:23:48;10.00;99.90
9776;DHT22;4927;52.472;13.108;2023-05-10T03:24:48;10.00;99.90
9776;DHT22;4927;52.472;13.108;2023-05-10T03:25:50;10.00;99.90
9776;DHT22;4927;52.472;13.108;2023-05-10T03:26:51;9.90;99.90
9776;DHT22;4927;52.472;13.108;2023-05-10T03:27:53;10.00;99.90
9776;DHT22;4927;52.472;13.108;2023-05-10T03:28:55;10.00;99.90
9776;DHT22;4927;52.472;13.108;2023-05-10T03:29:57;10.00;99.90
9776;DHT22;4927;52.472;13.108;2023-05-10T03:30:59;10.00;99.90
9776;DHT22;4927;52.472;13.108;2023-05-10T03:32:01;10.00;99.90
9776;DHT22;4927;52.472;13.108;2023-05-10T03:33:04;9.90;99.90
9776;DHT22;4927;52.472;13.108;2023-05-10T03:34:05;10.00;99.90
9776;DHT22;4927;52.472;13.108;2023-05-10T03:35:09;10.00;99.90
9776;DHT22;4927;52.472;13.108;2023-05-10T03:36:11;10.00;99.90
9776;DHT22;4927;52.472;13.108;2023-05-10T03:37:13;9.90;99.90
9776;DHT22;4927;52.472;13.108;2023-05-10T03:38:14;9.90;99.90
9776;DHT22;4927;52.472;13.108;2023-05-10T03:39:16;9.90;99.90
9776;DHT22;4927;52.472;13.108;2023-05-10T03:40:18;10.00;99.90
9776;DHT22;4927;52.472;13.108;2023-05-10T03:41:20;10.00;99.90
9776;DHT22;4927;52.472;13.108;2023-05-10T03:42:22;9.90;99.90
9776;DHT22;4927;52.472;13.108;2023-05-10T03:43:25;9.90;99.90
9776;DHT22;4927;52.472;13.108;2023-05-10T03:44:28;9.90;99.90
9776;DHT22;4927;52.472;13.108;2023-05-10T03:45:30;9.90;99.90
9776;DHT22;4927;52.472;13.108;2023-05-10T03:46:32;9.90;99.90
9776;DHT22;4927;52.472;13.108;2023-05-10T03:47:34;10.00;99.90
9776;DHT22;4927;52.472;13.108;2023-05-10T03:48:37;10.00;99.90
9776;DHT22;4927;52.472;13.108;2023-05-10T03:49:39;9.90;99.90
9776;DHT22;4927;52.472;13.108;2023-05-10T03:50:40;9.90;99.90
9776;DHT22;4927;52.472;13.108;2023-05-10T03:51:42;9.90;99.90
9776;DHT22;4927;52.472;13.108;2023-05-10T03:52:44;9.90;99.90
9776;DHT22;4927;52.472;13.108;2023-05-10T03:53:45;9.90;99.90
9776;DHT22;4927;52.472;13.108;2023-05-10T03:54:47;9.90;99.90
9776;DHT22;4927;52.472;13.108;2023-05-10T03:55:50;9.90;99.90
9776;DHT22;4927;52.472;13.108;2023-05-10T03:56:51;9.90;99.90
9776;DHT22;4927;52.472;13.108;2023-05-10T03:57:53;9.90;99.90
9776;DHT22;4927;52.472;13.108;2023-05-10T03:58:55;9.90;99.90
9776;DHT22;4927;52.472;13.108;2023-05-10T03:59:57;9.90;99.90
9776;DHT22;4927;52.472;13.108;2023-05-10T04:00:59;10.00;99.90
9776;DHT22;4927;52.472;13.108;2023-05-10T04:02:01;10.00;99.90
9776;DHT22;4927;52.472;13.108;2023-05-10T04:03:03;10.00;99.90
9776;DHT22;4927;52.472;13.108;2023-05-10T04:04:05;9.90;99.90
9776;DHT22;4927;52.472;13.108;2023-05-10T04:05:08;10.00;99.90
9776;DHT22;4927;52.472;13.108;2023-05-10T04:06:10;10.00;99.90
9776;DHT22;4927;52.472;13.108;2023-05-10T04:07:12;10.00;99.90
9776;DHT22;4927;52.472;13.108;2023-05-10T04:08:14;10.00;99.90
9776;DHT22;4927;52.472;13.108;2023-05-10T04:09:15;10.00;99.90
9776;DHT22;4927;52.472;13.108;2023-05-10T04:10:17;10.00;99.90
9776;DHT22;4927;52.472;13.108;2023-05-10T04:11:19;10.00;99.90
9776;DHT22;4927;52.472;13.108;2023-05-10T04:12:21;10.00;99.90
9776;DHT22;4927;52.472;13.108;2023-05-10T04:13:23;10.00;99.90
9776;DHT22;4927;52.472;13.108;2023-05-10T04:14:26;10.00;99.90
9776;DHT22;4927;52.472;13.108;2023-05-10T04:15:28;10.00;99.90
9776;DHT22;4927;52.472;13.108;2023-05-10T04:16:30;10.00;99.90
9776;DHT22;4927;52.472;13.108;2023-05-10T04:17:32;10.00;99.90
9776;DHT22;4927;52.472;13.108;2023-05-10T04:18:34;10.00;99.90
9776;DHT22;4927;52.472;13.108;2023-05-10T04:19:36;10.00;99.90
9776;DHT22;4927;52.472;13.108;2023-05-10T04:20:38;10.10;99.90
9776;DHT22;4927;52.472;13.108;2023-05-10T04:21:40;10.10;99.90
9776;DHT22;4927;52.472;13.108;2023-05-10T04:22:43;10.10;99.90
9776;DHT22;4927;52.472;13.108;2023-05-10T04:23:45;10.00;99.90
9776;DHT22;4927;52.472;13.108;2023-05-10T04:24:46;10.00;99.90
9776;DHT22;4927;52.472;13.108;2023-05-10T04:25:48;10.00;99.90
9776;DHT22;4927;52.472;13.108;2023-05-10T04:26:50;10.00;99.90
9776;DHT22;4927;52.472;13.108;2023-05-10T04:27:52;10.10;99.90
9776;DHT22;4927;52.472;13.108;2023-05-10T04:28:56;10.10;99.90
9776;DHT22;4927;52.472;13.108;2023-05-10T04:29:58;10.10;99.90
9776;DHT22;4927;52.472;13.108;2023-05-10T04:31:05;10.10;99.90
9776;DHT22;4927;52.472;13.108;2023-05-10T04:32:06;10.10;99.90
9776;DHT22;4927;52.472;13.108;2023-05-10T04:33:08;10.10;99.90
9776;DHT22;4927;52.472;13.108;2023-05-10T04:34:09;10.10;99.90
9776;DHT22;4927;52.472;13.108;2023-05-10T04:35:11;10.10;99.90
9776;DHT22;4927;52.472;13.108;2023-05-10T04:36:13;10.10;99.90
9776;DHT22;4927;52.472;13.108;2023-05-10T04:37:15;10.10;99.90
9776;DHT22;4927;52.472;13.108;2023-05-10T04:38:17;10.20;99.90
9776;DHT22;4927;52.472;13.108;2023-05-10T04:39:19;10.20;99.90
9776;DHT22;4927;52.472;13.108;2023-05-10T04:40:21;10.20;99.90
9776;DHT22;4927;52.472;13.108;2023-05-10T04:41:23;10.20;99.90
9776;DHT22;4927;52.472;13.108;2023-05-10T04:42:25;10.20;99.90
9776;DHT22;4927;52.472;13.108;2023-05-10T04:43:27;10.20;99.90
9776;DHT22;4927;52.472;13.108;2023-05-10T04:44:28;10.20;99.90
9776;DHT22;4927;52.472;13.108;2023-05-10T04:45:30;10.20;99.90
9776;DHT22;4927;52.472;13.108;2023-05-10T04:46:32;10.20;99.90
9776;DHT22;4927;52.472;13.108;2023-05-10T04:47:34;10.30;99.90
9776;DHT22;4927;52.472;13.108;2023-05-10T04:48:36;10.30;99.90
9776;DHT22;4927;52.472;13.108;2023-05-10T04:49:38;10.30;99.90
9776;DHT22;4927;52.472;13.108;2023-05-10T04:50:41;10.30;99.90
9776;DHT22;4927;52.472;13.108;2023-05-10T04:51:43;10.40;99.90
9776;DHT22;4927;52.472;13.108;2023-05-10T04:52:45;10.40;99.90
9776;DHT22;4927;52.472;13.108;2023-05-10T04:53:47;10.40;99.90
9776;DHT22;4927;52.472;13.108;2023-05-10T04:54:48;10.40;99.90
9776;DHT22;4927;52.472;13.108;2023-05-10T04:55:51;10.40;99.90
9776;DHT22;4927;52.472;13.108;2023-05-10T04:56:53;10.50;99.90
9776;DHT22;4927;52.472;13.108;2023-05-10T04:57:55;10.40;99.90
9776;DHT22;4927;52.472;13.108;2023-05-10T04:58:57;10.50;99.90
9776;DHT22;4927;52.472;13.108;2023-05-10T04:59:59;10.50;99.90
9776;DHT22;4927;52.472;13.108;2023-05-10T05:01:06;10.50;99.90
9776;DHT22;4927;52.472;13.108;2023-05-10T05:02:07;10.50;99.90
9776;DHT22;4927;52.472;13.108;2023-05-10T05:03:10;10.60;99.90
9776;DHT22;4927;52.472;13.108;2023-05-10T05:04:12;10.50;99.90
9776;DHT22;4927;52.472;13.108;2023-05-10T05:05:13;10.60;99.90
9776;DHT22;4927;52.472;13.108;2023-05-10T05:06:15;10.60;99.90
9776;DHT22;4927;52.472;13.108;2023-05-10T05:07:17;10.60;99.90
9776;DHT22;4927;52.472;13.108;2023-05-10T05:08:19;10.70;99.90
9776;DHT22;4927;52.472;13.108;2023-05-10T05:09:20;10.70;99.90
9776;DHT22;4927;52.472;13.108;2023-05-10T05:10:22;10.70;99.90
9776;DHT22;4927;52.472;13.108;2023-05-10T05:11:24;10.70;99.90
9776;DHT22;4927;52.472;13.108;2023-05-10T05:12:26;10.80;99.90
9776;DHT22;4927;52.472;13.108;2023-05-10T05:13:28;10.80;99.90
9776;DHT22;4927;52.472;13.108;2023-05-10T05:14:29;10.80;99.90
9776;DHT22;4927;52.472;13.108;2023-05-10T05:15:31;10.80;99.90
9776;DHT22;4927;52.472;13.108;2023-05-10T05:16:33;10.90;99.90
9776;DHT22;4927;52.472;13.108;2023-05-10T05:17:35;10.90;99.90
9776;DHT22;4927;52.472;13.108;2023-05-10T05:18:43;10.90;99.90
9776;DHT22;4927;52.472;13.108;2023-05-10T05:19:45;10.90;99.90
9776;DHT22;4927;52.472;13.108;2023-05-10T05:20:47;10.90;99.90
9776;DHT22;4927;52.472;13.108;2023-05-10T05:21:49;11.00;99.90
9776;DHT22;4927;52.472;13.108;2023-05-10T05:22:50;11.00;99.90
9776;DHT22;4927;52.472;13.108;2023-05-10T05:23:53;11.10;99.90
9776;DHT22;4927;52.472;13.108;2023-05-10T05:24:55;11.10;99.90
9776;DHT22;4927;52.472;13.108;2023-05-10T05:25:57;11.10;99.90
9776;DHT22;4927;52.472;13.108;2023-05-10T05:27:06;11.10;99.90
9776;DHT22;4927;52.472;13.108;2023-05-10T05:28:08;11.20;99.90
9776;DHT22;4927;52.472;13.108;2023-05-10T05:29:09;11.20;99.90
9776;DHT22;4927;52.472;13.108;2023-05-10T05:30:12;11.30;99.90
9776;DHT22;4927;52.472;13.108;2023-05-10T05:31:14;11.30;99.90
9776;DHT22;4927;52.472;13.108;2023-05-10T05:32:16;11.40;99.90
9776;DHT22;4927;52.472;13.108;2023-05-10T05:33:18;11.30;99.90
9776;DHT22;4927;52.472;13.108;2023-05-10T05:34:20;11.40;99.90
9776;DHT22;4927;52.472;13.108;2023-05-10T05:35:22;11.40;99.90
9776;DHT22;4927;52.472;13.108;2023-05-10T05:36:23;11.40;99.90
9776;DHT22;4927;52.472;13.108;2023-05-10T05:37:25;11.50;99.90
9776;DHT22;4927;52.472;13.108;2023-05-10T05:38:28;11.60;99.90
9776;DHT22;4927;52.472;13.108;2023-05-10T05:39:29;11.50;99.90
9776;DHT22;4927;52.472;13.108;2023-05-10T05:40:31;11.60;99.90
9776;DHT22;4927;52.472;13.108;2023-05-10T05:41:33;11.60;99.90
9776;DHT22;4927;52.472;13.108;2023-05-10T05:42:35;11.60;99.90
9776;DHT22;4927;52.472;13.108;2023-05-10T05:43:37;11.70;99.90
9776;DHT22;4927;52.472;13.108;2023-05-10T05:44:39;11.70;99.90
9776;DHT22;4927;52.472;13.108;2023-05-10T05:45:41;11.70;99.90
9776;DHT22;4927;52.472;13.108;2023-05-10T05:46:44;11.70;99.90
9776;DHT22;4927;52.472;13.108;2023-05-10T05:47:46;11.80;99.90
9776;DHT22;4927;52.472;13.108;2023-05-10T05:48:48;11.80;99.90
9776;DHT22;4927;52.472;13.108;2023-05-10T05:49:50;11.80;99.90
9776;DHT22;4927;52.472;13.108;2023-05-10T05:50:54;11.90;99.90
9776;DHT22;4927;52.472;13.108;2023-05-10T05:52:00;11.90;99.90
9776;DHT22;4927;52.472;13.108;2023-05-10T05:53:02;11.90;99.90
9776;DHT22;4927;52.472;13.108;2023-05-10T05:54:04;11.90;99.90
9776;DHT22;4927;52.472;13.108;2023-05-10T05:55:07;11.90;99.90
9776;DHT22;4927;52.472;13.108;2023-05-10T05:56:08;11.90;99.90
9776;DHT22;4927;52.472;13.108;2023-05-10T05:57:10;12.00;99.90
9776;DHT22;4927;52.472;13.108;2023-05-10T05:58:12;12.00;99.90
9776;DHT22;4927;52.472;13.108;2023-05-10T05:59:14;12.00;99.90
9776;DHT22;4927;52.472;13.108;2023-05-10T06:00:16;12.00;99.90
9776;DHT22;4927;52.472;13.108;2023-05-10T06:01:18;12.10;99.90
9776;DHT22;4927;52.472;13.108;2023-05-10T06:02:20;12.10;99.90
9776;DHT22;4927;52.472;13.108;2023-05-10T06:03:23;12.20;99.90
9776;DHT22;4927;52.472;13.108;2023-05-10T06:04:25;12.20;99.90
9776;DHT22;4927;52.472;13.108;2023-05-10T06:05:27;12.20;99.90
9776;DHT22;4927;52.472;13.108;2023-05-10T06:06:29;12.20;99.90
9776;DHT22;4927;52.472;13.108;2023-05-10T06:07:30;12.30;99.90
9776;DHT22;4927;52.472;13.108;2023-05-10T06:08:33;12.30;99.90
9776;DHT22;4927;52.472;13.108;2023-05-10T06:09:35;12.30;99.90
9776;DHT22;4927;52.472;13.108;2023-05-10T06:10:36;12.40;99.90
9776;DHT22;4927;52.472;13.108;2023-05-10T06:11:39;12.50;99.90
9776;DHT22;4927;52.472;13.108;2023-05-10T06:12:41;12.40;99.90
9776;DHT22;4927;52.472;13.108;2023-05-10T06:13:44;12.50;99.90
9776;DHT22;4927;52.472;13.108;2023-05-10T06:14:46;12.50;99.90
9776;DHT22;4927;52.472;13.108;2023-05-10T06:15:47;12.60;99.90
9776;DHT22;4927;52.472;13.108;2023-05-10T06:16:49;12.60;99.90
9776;DHT22;4927;52.472;13.108;2023-05-10T06:17:51;12.60;99.90
9776;DHT22;4927;52.472;13.108;2023-05-10T06:18:53;12.70;99.90
9776;DHT22;4927;52.472;13.108;2023-05-10T06:19:55;12.70;99.90
9776;DHT22;4927;52.472;13.108;2023-05-10T06:20:57;12.70;99.90
9776;DHT22;4927;52.472;13.108;2023-05-10T06:21:59;12.80;99.90
9776;DHT22;4927;52.472;13.108;2023-05-10T06:23:01;12.80;99.90
9776;DHT22;4927;52.472;13.108;2023-05-10T06:24:03;12.80;99.90
9776;DHT22;4927;52.472;13.108;2023-05-10T06:25:07;12.80;99.90
9776;DHT22;4927;52.472;13.108;2023-05-10T06:26:09;12.90;99.90
9776;DHT22;4927;52.472;13.108;2023-05-10T06:27:11;12.90;99.90
9776;DHT22;4927;52.472;13.108;2023-05-10T06:28:13;12.90;99.90
9776;DHT22;4927;52.472;13.108;2023-05-10T06:29:15;13.00;99.90
9776;DHT22;4927;52.472;13.108;2023-05-10T06:30:16;13.00;99.90
9776;DHT22;4927;52.472;13.108;2023-05-10T06:31:18;13.00;99.90
9776;DHT22;4927;52.472;13.108;2023-05-10T06:32:20;13.10;99.90
9776;DHT22;4927;52.472;13.108;2023-05-10T06:33:22;13.10;99.90
9776;DHT22;4927;52.472;13.108;2023-05-10T06:34:24;13.10;99.90
9776;DHT22;4927;52.472;13.108;2023-05-10T06:35:27;13.20;99.90
9776;DHT22;4927;52.472;13.108;2023-05-10T06:36:28;13.20;99.90
9776;DHT22;4927;52.472;13.108;2023-05-10T06:37:31;13.30;99.90
9776;DHT22;4927;52.472;13.108;2023-05-10T06:38:32;13.30;99.90
9776;DHT22;4927;52.472;13.108;2023-05-10T06:39:34;13.30;99.90
9776;DHT22;4927;52.472;13.108;2023-05-10T06:40:36;13.40;99.90
9776;DHT22;4927;52.472;13.108;2023-05-10T06:41:38;13.40;99.90
9776;DHT22;4927;52.472;13.108;2023-05-10T06:42:40;13.50;99.90
9776;DHT22;4927;52.472;13.108;2023-05-10T06:43:42;13.50;99.90
9776;DHT22;4927;52.472;13.108;2023-05-10T06:44:44;13.50;99.90
9776;DHT22;4927;52.472;13.108;2023-05-10T06:45:46;13.60;99.90